메인 페이지
METAR-TAF:

METAR-TAF

공항 :

새스커툰, 서스캐처원, 캐나다

위도: 52-10N, 경도: 106-41W, 고도: 501m

현재 날씨관측

예보는 4분 전, 14:07시(UTC)에 발표되었습니다.
8kt
온도 -8°C
습도 92%
기압 1016 hPa
시정: 1.0km
박무

METAR: CYXE 061407Z 27008KT 5/8SM R09/P6000FT/U BR VV002 M08/M09 A3001 RMK FG8 SLP200

시각: 08:11 (14:11 UTC)

예보

예보는 2 시간 29분 전, 11:42시(UTC)에 발표되었습니다.
예보 대상 시간: 06일 12시부터 07일 12시까지 (UTC)
남서4kt
시정: 0.4km
고도 100ft 상공
어는 안개
일시적
06일 12시부터 06일 17시까지 (UTC)
시정: 4.8km
고도 300ft 상공 구름 많음
박무
06일 1700시부터 (UTC)
남남서8kt
시정: 10km
고도 300ft 상공 구름 보통
고도 10000ft 상공 구름 많음
일시적
06일 17시부터 06일 19시까지 (UTC)
시정: 4.8km
박무
06일 1900시부터 (UTC)
남서6kt
시정: 10km
고도 1000ft 상공 구름 조금
고도 9000ft 상공 구름 많음
전환 중
06일 22시부터 06일 24시까지 (UTC)
남남동6kt

TAF: CYXE 061142Z 0612/0712 23004KT 1/4SM FZFG VV001 TEMPO 0612/0617 3SM BR BKN003 FM061700 20008KT P6SM SCT003 BKN100 TEMPO 0617/0619 3SM BR FM061900 22006KT P6SM FEW010 BKN090 BECMG 0622/0624 16006KT RMK NXT FCST BY 061800Z

4,000개 이상의 공항 관측 자료 및 예보 (METAR 및 TAF 보고).

지도상에서 검색 가능한 기상관측소가 노란 점과 빨간 점으로 표시되어 있습니다.

기상관측소 명을 보려면 표시 위로 마우스를 이동하세요.

날씨 관측과 예보를 보려면 클릭하세요.

지도 변경 : 확대하려면 엑스 표시가 있는 녹색 버튼, 축소하려면 빼기 표시가 있는 녹색 버튼, 다음 페이지의 지도를 보려면 녹색 화살표를 클릭하세요.


METAR-TAF: